Time;durP1;ratioP1;P1;durP2;ratioP2;P2;SDS_P1;SDS_P2;PMS_P1;PMS_P2;Temp;Humidity;BMP_temperature;BMP_pressure;BME280_temperature;BME280_humidity;BME280_pressure;Samples;Min_cycle;Max_cycle;Signal;HPM_P1;HPM_P2
2022/03/18 00:02:04;;;;;;;;;;;;;;;;;;5095668;28;20293;-33
2022/03/18 00:04:30;;;;;;;;;;;;;;;;;;5096198;28;19974;-31
2022/03/18 00:06:56;;;;;;;;;;;;;;;;;;5095575;28;20291;-33
2022/03/18 00:09:22;;;;;;;;;;;;;;;;;;5095828;28;19920;-35
2022/03/18 00:11:48;;;;;;;;;;;;;;;;;;5095684;28;19961;-32
2022/03/18 00:14:14;;;;;;;;;;;;;;;;;;5095424;28;19926;-32
2022/03/18 00:16:40;;;;;;;;;;;;;;;;;;5095462;28;20262;-32
2022/03/18 00:19:06;;;;;;;;;;;;;;;;;;5095755;28;19955;-33
2022/03/18 00:21:34;;;;;;;;;;;;;;;;;;5095390;28;20351;-31
2022/03/18 00:24:00;;;;;;;;;;;;;;;;;;5094734;28;19909;-33
2022/03/18 00:26:26;;;;;;;;;;;;;;;;;;5095304;28;19931;-33
2022/03/18 00:28:52;;;;;;;;;;;;;;;;;;5095928;28;19908;-32
2022/03/18 00:31:18;;;;;;;;;;;;;;;;;;5077526;28;20381;-37
2022/03/18 00:33:44;;;;;;;;;;;;;;;;;;5095495;28;19984;-32
2022/03/18 00:36:10;;;;;;;;;;;;;;;;;;5095242;28;20224;-31
2022/03/18 00:38:36;;;;;;;;;;;;;;;;;;5095772;28;20054;-31
2022/03/18 00:41:02;;;;;;;;;;;;;;;;;;5095119;28;20019;-33
2022/03/18 00:43:28;;;;;;;;;;;;;;;;;;5095413;28;20041;-33
2022/03/18 00:45:54;;;;;;;;;;;;;;;;;;5096243;28;19923;-32
2022/03/18 00:53:50;;;;;;;;;;;;;;;;;;5095332;28;20007;-31
2022/03/18 00:56:16;;;;;;;;;;;;;;;;;;5077255;28;19944;-31
2022/03/18 00:58:43;;;;;;;;;;;;;;;;;;5095623;28;20368;-32
2022/03/18 01:01:09;;;;;;;;;;;;;;;;;;5095032;28;19920;-32
2022/03/18 01:03:35;;;;;;;;;;;;;;;;;;5080965;28;19931;-33
2022/03/18 01:06:01;;;;;;;;;;;;;;;;;;5095513;28;19912;-31
2022/03/18 01:08:27;;;;;;;;;;;;;;;;;;5094993;28;19912;-31
2022/03/18 01:10:53;;;;;;;;;;;;;;;;;;5095216;28;20242;-31
2022/03/18 01:13:19;;;;;;;;;;;;;;;;;;5095088;28;19919;-31
2022/03/18 01:15:45;;;;;;;;;;;;;;;;;;5095377;28;19928;-32
2022/03/18 01:18:11;;;;;;;;;;;;;;;;;;5095653;28;19912;-35
2022/03/18 01:20:37;;;;;;;;;;;;;;;;;;5094875;28;19983;-31
2022/03/18 01:23:06;;;;;;;;;;;;;;;;;;5094740;28;19923;-31
2022/03/18 01:25:32;;;;;;;;;;;;;;;;;;5076977;28;19931;-31
2022/03/18 01:27:58;;;;;;;;;;;;;;;;;;5076948;28;20338;-32
2022/03/18 01:30:24;;;;;;;;;;;;;;;;;;5095331;28;19916;-32
2022/03/18 01:32:50;;;;;;;;;;;;;;;;;;5094985;28;19912;-34
2022/03/18 01:35:16;;;;;;;;;;;;;;;;;;5096411;28;20261;-32
2022/03/18 01:37:42;;;;;;;;;;;;;;;;;;5098658;28;19908;-33
2022/03/18 01:40:08;;;;;;;;;;;;;;;;;;5098364;28;19912;-32
2022/03/18 01:42:34;;;;;;;;;;;;;;;;;;5098212;28;20015;-34
2022/03/18 01:45:00;;;;;;;;;;;;;;;;;;5081258;28;20216;-35
2022/03/18 01:47:26;;;;;;;;;;;;;;;;;;5098521;28;19912;-32
2022/03/18 01:49:53;;;;;;;;;;;;;;;;;;5098451;28;20010;-36
2022/03/18 01:52:19;;;;;;;;;;;;;;;;;;5098275;28;20251;-32
2022/03/18 01:54:46;;;;;;;;;;;;;;;;;;5080095;28;19916;-33
2022/03/18 01:57:12;;;;;;;;;;;;;;;;;;5098068;28;20259;-32
2022/03/18 01:59:38;;;;;;;;;;;;;;;;;;5098195;28;19916;-32
2022/03/18 02:02:04;;;;;;;;;;;;;;;;;;5097878;28;19908;-32
2022/03/18 02:04:30;;;;;;;;;;;;;;;;;;5059892;28;20007;-32
2022/03/18 02:06:56;;;;;;;;;;;;;;;;;;5057582;28;19913;-32
2022/03/18 02:09:22;;;;;;;;;;;;;;;;;;5057511;28;20241;-34
2022/03/18 02:11:48;;;;;;;;;;;;;;;;;;5057391;28;19969;-31
2022/03/18 02:14:14;;;;;;;;;;;;;;;;;;5056378;28;20263;-35
2022/03/18 02:16:40;;;;;;;;;;;;;;;;;;5057376;28;19919;-33
2022/03/18 02:19:06;;;;;;;;;;;;;;;;;;5057672;28;20299;-32
2022/03/18 02:21:33;;;;;;;;;;;;;;;;;;5056318;28;20318;-33
2022/03/18 02:23:59;;;;;;;;;;;;;;;;;;5057180;28;19909;-33
2022/03/18 02:26:25;;;;;;;;;;;;;;;;;;5057133;28;19913;-34
2022/03/18 02:28:51;;;;;;;;;;;;;;;;;;5057657;28;19913;-32
2022/03/18 02:31:17;;;;;;;;;;;;;;;;;;5057005;28;19909;-32
2022/03/18 02:33:43;;;;;;;;;;;;;;;;;;5057600;28;19913;-33
2022/03/18 02:36:09;;;;;;;;;;;;;;;;;;5056947;28;20031;-36
2022/03/18 02:38:35;;;;;;;;;;;;;;;;;;5057001;28;20054;-32
2022/03/18 02:41:01;;;;;;;;;;;;;;;;;;5056284;28;19913;-33
2022/03/18 02:43:27;;;;;;;;;;;;;;;;;;5057396;28;19913;-33
2022/03/18 02:45:53;;;;;;;;;;;;;;;;;;5057651;28;20007;-33
2022/03/18 02:48:19;;;;;;;;;;;;;;;;;;5055410;28;19927;-34
2022/03/18 02:50:45;;;;;;;;;;;;;;;;;;5057306;28;19913;-32
2022/03/18 02:53:11;;;;;;;;;;;;;;;;;;5056939;28;20327;-31
2022/03/18 02:55:37;;;;;;;;;;;;;;;;;;5056592;28;19956;-32
2022/03/18 02:58:04;;;;;;;;;;;;;;;;;;5056644;28;19920;-32
2022/03/18 03:00:30;;;;;;;;;;;;;;;;;;5056447;28;19961;-32
2022/03/18 03:02:56;;;;;;;;;;;;;;;;;;5063524;28;20014;-32
2022/03/18 03:08:06;;;;;;;;;;;;;;;;;;5097036;28;19919;-34
2022/03/18 03:10:32;;;;;;;;;;;;;;;;;;5096571;28;20362;-32
2022/03/18 03:12:59;;;;;;;;;;;;;;;;;;5096754;28;19908;-32
2022/03/18 03:15:25;;;;;;;;;;;;;;;;;;5096967;28;19916;-34
2022/03/18 03:17:51;;;;;;;;;;;;;;;;;;5078629;28;19920;-32
2022/03/18 03:20:17;;;;;;;;;;;;;;;;;;5096405;28;19919;-33
2022/03/18 03:22:43;;;;;;;;;;;;;;;;;;5096310;28;19912;-32
2022/03/18 03:25:09;;;;;;;;;;;;;;;;;;5096305;28;19908;-32
2022/03/18 03:27:35;;;;;;;;;;;;;;;;;;5096807;28;19951;-32
2022/03/18 03:30:01;;;;;;;;;;;;;;;;;;5096232;28;20002;-32
2022/03/18 03:32:27;;;;;;;;;;;;;;;;;;5096089;28;19912;-32
2022/03/18 03:34:54;;;;;;;;;;;;;;;;;;5095963;28;19952;-32
2022/03/18 03:37:20;;;;;;;;;;;;;;;;;;5096300;28;19913;-34
2022/03/18 03:39:46;;;;;;;;;;;;;;;;;;5096057;28;19908;-32
2022/03/18 03:42:12;;;;;;;;;;;;;;;;;;5096176;28;20299;-33
2022/03/18 03:44:38;;;;;;;;;;;;;;;;;;5096751;28;19912;-32
2022/03/18 03:47:04;;;;;;;;;;;;;;;;;;5096011;28;19912;-34
2022/03/18 03:49:30;;;;;;;;;;;;;;;;;;5096465;28;19912;-35
2022/03/18 03:51:56;;;;;;;;;;;;;;;;;;5095816;28;19912;-31
2022/03/18 03:54:22;;;;;;;;;;;;;;;;;;5095717;28;20251;-32
2022/03/18 03:56:48;;;;;;;;;;;;;;;;;;5096042;28;19908;-34
2022/03/18 03:59:14;;;;;;;;;;;;;;;;;;5077093;28;19916;-34
2022/03/18 04:01:40;;;;;;;;;;;;;;;;;;5095908;28;20296;-33
2022/03/18 04:04:05;;;;;;;;;;;;;;;;;;5095377;28;19976;-32
2022/03/18 04:06:32;;;;;;;;;;;;;;;;;;5095664;28;19960;-33
2022/03/18 04:08:59;;;;;;;;;;;;;;;;;;5095768;28;20281;-32
2022/03/18 04:11:25;;;;;;;;;;;;;;;;;;5077687;28;19923;-34
2022/03/18 04:13:51;;;;;;;;;;;;;;;;;;5095460;28;20317;-32
2022/03/18 04:16:17;;;;;;;;;;;;;;;;;;5095416;28;19916;-32
2022/03/18 04:18:43;;;;;;;;;;;;;;;;;;5095719;28;19998;-33
2022/03/18 04:21:09;;;;;;;;;;;;;;;;;;5095378;28;19918;-33
2022/03/18 04:23:35;;;;;;;;;;;;;;;;;;5095304;28;19977;-31
2022/03/18 04:26:01;;;;;;;;;;;;;;;;;;5095444;28;19912;-32
2022/03/18 04:28:27;;;;;;;;;;;;;;;;;;5095291;28;20003;-32
2022/03/18 04:30:53;;;;;;;;;;;;;;;;;;5095881;28;19916;-32
2022/03/18 04:33:19;;;;;;;;;;;;;;;;;;5095455;28;19909;-33
2022/03/18 04:35:45;;;;;;;;;;;;;;;;;;5095139;28;19916;-35
2022/03/18 04:38:11;;;;;;;;;;;;;;;;;;5077464;28;19908;-31
2022/03/18 04:40:37;;;;;;;;;;;;;;;;;;5095214;28;19920;-33
2022/03/18 04:43:03;;;;;;;;;;;;;;;;;;5077289;28;19931;-32
2022/03/18 04:45:29;;;;;;;;;;;;;;;;;;5095370;28;20262;-32
2022/03/18 04:47:55;;;;;;;;;;;;;;;;;;5095104;28;20345;-32
2022/03/18 04:50:21;;;;;;;;;;;;;;;;;;5077361;28;20296;-34
2022/03/18 04:52:47;;;;;;;;;;;;;;;;;;5095022;28;19908;-34
2022/03/18 04:55:13;;;;;;;;;;;;;;;;;;5094972;28;20351;-33
2022/03/18 04:57:39;;;;;;;;;;;;;;;;;;5095033;28;19908;-32
2022/03/18 05:00:05;;;;;;;;;;;;;;;;;;5095251;28;19912;-33
2022/03/18 05:02:31;;;;;;;;;;;;;;;;;;5077008;28;20006;-33
2022/03/18 05:04:57;;;;;;;;;;;;;;;;;;5095494;28;19956;-34
2022/03/18 05:07:24;;;;;;;;;;;;;;;;;;5095462;28;19959;-33
2022/03/18 05:09:50;;;;;;;;;;;;;;;;;;5078013;28;20342;-32
2022/03/18 05:12:16;;;;;;;;;;;;;;;;;;5098888;28;19908;-32
2022/03/18 05:14:41;;;;;;;;;;;;;;;;;;5080613;28;19924;-33
2022/03/18 05:17:08;;;;;;;;;;;;;;;;;;5099107;28;19915;-34
2022/03/18 05:19:34;;;;;;;;;;;;;;;;;;5098495;28;19960;-34
2022/03/18 05:22:00;;;;;;;;;;;;;;;;;;5098484;28;19919;-34
2022/03/18 05:24:26;;;;;;;;;;;;;;;;;;5098869;28;19912;-37
2022/03/18 05:26:52;;;;;;;;;;;;;;;;;;5098509;28;19942;-33
2022/03/18 05:29:18;;;;;;;;;;;;;;;;;;5098446;28;19911;-34
2022/03/18 05:31:46;;;;;;;;;;;;;;;;;;5098417;28;19923;-32
2022/03/18 05:34:12;;;;;;;;;;;;;;;;;;5098424;28;20007;-34
2022/03/18 05:36:38;;;;;;;;;;;;;;;;;;5098424;28;19930;-33
2022/03/18 05:39:04;;;;;;;;;;;;;;;;;;5098281;28;19916;-32
2022/03/18 05:41:31;;;;;;;;;;;;;;;;;;5098880;28;19908;-33
2022/03/18 05:43:57;;;;;;;;;;;;;;;;;;5080372;28;20343;-31
2022/03/18 05:46:23;;;;;;;;;;;;;;;;;;5098117;28;19912;-32
2022/03/18 05:48:49;;;;;;;;;;;;;;;;;;5098340;28;19919;-32
2022/03/18 05:51:15;;;;;;;;;;;;;;;;;;5098022;28;19913;-34
2022/03/18 05:53:41;;;;;;;;;;;;;;;;;;5097996;28;19958;-32
2022/03/18 05:58:51;;;;;;;;;;;;;;;;;;5097925;28;19965;-32
2022/03/18 06:01:17;;;;;;;;;;;;;;;;;;5080070;28;19912;-32
2022/03/18 06:03:43;;;;;;;;;;;;;;;;;;5066165;28;20422;-32
2022/03/18 06:06:09;;;;;;;;;;;;;;;;;;5057424;28;20266;-33
2022/03/18 06:14:05;;;;;;;;;;;;;;;;;;5057517;28;19920;-32
2022/03/18 06:16:31;;;;;;;;;;;;;;;;;;5057599;28;20242;-32
2022/03/18 06:18:56;;;;;;;;;;;;;;;;;;5057279;28;20386;-33
2022/03/18 06:21:22;;;;;;;;;;;;;;;;;;5056229;28;19943;-32
2022/03/18 06:23:48;;;;;;;;;;;;;;;;;;5057051;28;20263;-34
2022/03/18 06:26:14;;;;;;;;;;;;;;;;;;5056829;28;19924;-33
2022/03/18 06:28:40;;;;;;;;;;;;;;;;;;5056042;28;19909;-32
2022/03/18 06:31:06;;;;;;;;;;;;;;;;;;5057082;28;19919;-33
2022/03/18 06:33:32;;;;;;;;;;;;;;;;;;5056768;28;19924;-34
2022/03/18 06:35:58;;;;;;;;;;;;;;;;;;5056832;28;20252;-33
2022/03/18 06:38:24;;;;;;;;;;;;;;;;;;5057204;28;19917;-31
2022/03/18 06:40:50;;;;;;;;;;;;;;;;;;5056814;28;19944;-32
2022/03/18 06:43:16;;;;;;;;;;;;;;;;;;5057224;28;19909;-35
2022/03/18 06:45:42;;;;;;;;;;;;;;;;;;5056727;28;19916;-33
2022/03/18 06:48:08;;;;;;;;;;;;;;;;;;5056807;28;19920;-31
2022/03/18 06:50:34;;;;;;;;;;;;;;;;;;5056561;28;20362;-31
2022/03/18 06:53:00;;;;;;;;;;;;;;;;;;5055688;28;19912;-35
2022/03/18 06:55:26;;;;;;;;;;;;;;;;;;5056440;28;19998;-33
2022/03/18 06:57:53;;;;;;;;;;;;;;;;;;5056473;28;19909;-32
2022/03/18 07:00:19;;;;;;;;;;;;;;;;;;5056848;28;19999;-31
2022/03/18 07:02:45;;;;;;;;;;;;;;;;;;5060509;28;19909;-32
2022/03/18 07:05:12;;;;;;;;;;;;;;;;;;5096904;28;19927;-32
2022/03/18 07:07:40;;;;;;;;;;;;;;;;;;5096717;28;19928;-31
2022/03/18 07:10:06;;;;;;;;;;;;;;;;;;5096370;28;19916;-32
2022/03/18 07:12:32;;;;;;;;;;;;;;;;;;5096592;28;19969;-34
2022/03/18 07:14:58;;;;;;;;;;;;;;;;;;5096556;28;19916;-34
2022/03/18 07:20:08;;;;;;;;;;;;;;;;;;5096349;28;20410;-34
2022/03/18 07:22:34;;;;;;;;;;;;;;;;;;5095887;28;19948;-33
2022/03/18 07:25:00;;;;;;;;;;;;;;;;;;5095965;28;19919;-32
2022/03/18 07:27:26;;;;;;;;;;;;;;;;;;5096562;28;19908;-31
2022/03/18 07:29:52;;;;;;;;;;;;;;;;;;5095990;28;19935;-32
2022/03/18 07:32:18;;;;;;;;;;;;;;;;;;5096301;28;19912;-31
2022/03/18 07:34:44;;;;;;;;;;;;;;;;;;5096462;28;19923;-31
2022/03/18 07:37:10;;;;;;;;;;;;;;;;;;5096072;28;19908;-33
2022/03/18 07:39:36;;;;;;;;;;;;;;;;;;5096317;28;19920;-33
2022/03/18 07:42:02;;;;;;;;;;;;;;;;;;5077792;28;20007;-32
2022/03/18 07:44:28;;;;;;;;;;;;;;;;;;5095656;28;19912;-33
2022/03/18 07:46:54;;;;;;;;;;;;;;;;;;5095919;28;19920;-31
2022/03/18 07:49:21;;;;;;;;;;;;;;;;;;5095697;28;19912;-33
2022/03/18 07:51:47;;;;;;;;;;;;;;;;;;5095536;28;19923;-34
2022/03/18 07:54:13;;;;;;;;;;;;;;;;;;5095591;28;20372;-34
2022/03/18 07:56:40;;;;;;;;;;;;;;;;;;5095461;28;19912;-35
2022/03/18 07:59:06;;;;;;;;;;;;;;;;;;5095695;28;19966;-32
2022/03/18 08:01:33;;;;;;;;;;;;;;;;;;5095396;28;20278;-32
2022/03/18 08:03:59;;;;;;;;;;;;;;;;;;5095629;28;19920;-32
2022/03/18 08:06:25;;;;;;;;;;;;;;;;;;5077672;28;20010;-33
2022/03/18 08:08:51;;;;;;;;;;;;;;;;;;5095868;28;19954;-31
2022/03/18 08:11:16;;;;;;;;;;;;;;;;;;5095363;28;20350;-31
2022/03/18 08:13:45;;;;;;;;;;;;;;;;;;5095169;28;19908;-32
2022/03/18 08:16:11;;;;;;;;;;;;;;;;;;5077365;28;19920;-33
2022/03/18 08:18:37;;;;;;;;;;;;;;;;;;5095512;28;19919;-31
2022/03/18 08:21:03;;;;;;;;;;;;;;;;;;5077467;28;19912;-31
2022/03/18 08:23:31;;;;;;;;;;;;;;;;;;5095251;28;20007;-33
2022/03/18 08:25:57;;;;;;;;;;;;;;;;;;5077400;28;20011;-33
2022/03/18 08:28:23;;;;;;;;;;;;;;;;;;5095128;28;19944;-32
2022/03/18 08:30:49;;;;;;;;;;;;;;;;;;5095128;28;19970;-37
2022/03/18 08:33:15;;;;;;;;;;;;;;;;;;5077143;28;19911;-35
2022/03/18 08:35:42;;;;;;;;;;;;;;;;;;5095014;28;19935;-33
2022/03/18 08:38:09;;;;;;;;;;;;;;;;;;5095259;28;19908;-31
2022/03/18 08:40:36;;;;;;;;;;;;;;;;;;5077114;28;19912;-32
2022/03/18 08:43:02;;;;;;;;;;;;;;;;;;5077194;28;19969;-31
2022/03/18 08:45:28;;;;;;;;;;;;;;;;;;5097284;28;20289;-31
2022/03/18 08:47:54;;;;;;;;;;;;;;;;;;5099492;28;19924;-33
2022/03/18 08:50:23;;;;;;;;;;;;;;;;;;5081222;28;19912;-33
2022/03/18 08:52:49;;;;;;;;;;;;;;;;;;5099189;28;19965;-35
2022/03/18 08:55:15;;;;;;;;;;;;;;;;;;5098709;28;20010;-34
2022/03/18 08:57:41;;;;;;;;;;;;;;;;;;5099282;28;19948;-31
2022/03/18 09:00:07;;;;;;;;;;;;;;;;;;5098932;28;19912;-31
2022/03/18 09:02:33;;;;;;;;;;;;;;;;;;5098686;28;19909;-32
2022/03/18 09:04:59;;;;;;;;;;;;;;;;;;5081007;28;19916;-32
2022/03/18 09:07:26;;;;;;;;;;;;;;;;;;5081066;28;19973;-32
2022/03/18 09:09:52;;;;;;;;;;;;;;;;;;5098720;28;19951;-32
2022/03/18 09:12:18;;;;;;;;;;;;;;;;;;5098969;28;19912;-32
2022/03/18 09:14:44;;;;;;;;;;;;;;;;;;5098987;28;20354;-34
2022/03/18 09:17:10;;;;;;;;;;;;;;;;;;5099188;28;19912;-32
2022/03/18 09:19:37;;;;;;;;;;;;;;;;;;5098540;28;20250;-34
2022/03/18 09:22:03;;;;;;;;;;;;;;;;;;5080546;28;20358;-33
2022/03/18 09:24:30;;;;;;;;;;;;;;;;;;5098809;28;19919;-33
2022/03/18 09:26:56;;;;;;;;;;;;;;;;;;5098596;28;20244;-32
2022/03/18 09:29:25;;;;;;;;;;;;;;;;;;5098639;28;19923;-33
2022/03/18 09:31:51;;;;;;;;;;;;;;;;;;5098212;28;19935;-32
2022/03/18 09:34:17;;;;;;;;;;;;;;;;;;5098355;28;19969;-33
2022/03/18 09:36:44;;;;;;;;;;;;;;;;;;5098513;28;19922;-32
2022/03/18 09:39:09;;;;;;;;;;;;;;;;;;5098160;28;19919;-32
2022/03/18 09:41:35;;;;;;;;;;;;;;;;;;5098403;28;19991;-31
2022/03/18 09:44:01;;;;;;;;;;;;;;;;;;5098186;28;19912;-31
2022/03/18 09:46:27;;;;;;;;;;;;;;;;;;5098752;28;20238;-35
2022/03/18 09:48:53;;;;;;;;;;;;;;;;;;5098280;28;19950;-32
2022/03/18 09:51:19;;;;;;;;;;;;;;;;;;5098854;28;19919;-32
2022/03/18 09:53:45;;;;;;;;;;;;;;;;;;5098100;28;19908;-31
2022/03/18 09:56:11;;;;;;;;;;;;;;;;;;5097271;28;19923;-31
2022/03/18 09:58:37;;;;;;;;;;;;;;;;;;5097876;28;19916;-33
2022/03/18 10:01:04;;;;;;;;;;;;;;;;;;5080022;28;20377;-32
2022/03/18 10:03:30;;;;;;;;;;;;;;;;;;5097742;28;19920;-36
2022/03/18 10:05:59;;;;;;;;;;;;;;;;;;5097855;28;19994;-34
2022/03/18 10:08:25;;;;;;;;;;;;;;;;;;5098136;28;20293;-31
2022/03/18 10:10:51;;;;;;;;;;;;;;;;;;5097860;28;19995;-33
2022/03/18 10:13:18;;;;;;;;;;;;;;;;;;5097628;28;19973;-31
2022/03/18 10:15:44;;;;;;;;;;;;;;;;;;5097815;28;20342;-34
2022/03/18 10:18:10;;;;;;;;;;;;;;;;;;5097612;28;19919;-33
2022/03/18 10:20:38;;;;;;;;;;;;;;;;;;5097588;28;19995;-35
2022/03/18 10:23:04;;;;;;;;;;;;;;;;;;5097460;28;19985;-31
2022/03/18 10:25:30;;;;;;;;;;;;;;;;;;5098183;28;19995;-33
2022/03/18 10:27:56;;;;;;;;;;;;;;;;;;5097195;28;19923;-32
2022/03/18 10:30:22;;;;;;;;;;;;;;;;;;5079434;28;19912;-32
2022/03/18 10:32:49;;;;;;;;;;;;;;;;;;5079284;28;20247;-34
2022/03/18 10:37:59;;;;;;;;;;;;;;;;;;5097183;28;19919;-33
2022/03/18 10:40:25;;;;;;;;;;;;;;;;;;5096865;28;20376;-34
2022/03/18 10:42:51;;;;;;;;;;;;;;;;;;5079109;28;19908;-36
2022/03/18 10:45:17;;;;;;;;;;;;;;;;;;5097486;28;19912;-33
2022/03/18 10:47:45;;;;;;;;;;;;;;;;;;5096917;28;19908;-32
2022/03/18 10:50:11;;;;;;;;;;;;;;;;;;5096822;28;19912;-32
2022/03/18 10:52:37;;;;;;;;;;;;;;;;;;5096772;28;19923;-31
2022/03/18 10:55:03;;;;;;;;;;;;;;;;;;5096770;28;19935;-32
2022/03/18 10:57:29;;;;;;;;;;;;;;;;;;5096821;28;19938;-31
2022/03/18 10:59:55;;;;;;;;;;;;;;;;;;5097169;28;19912;-32
2022/03/18 11:02:21;;;;;;;;;;;;;;;;;;5096440;28;19961;-32
2022/03/18 11:04:48;;;;;;;;;;;;;;;;;;5096465;28;19920;-32
2022/03/18 11:07:34;;;;;;;;;;;;;;;;;;5096500;28;19943;-33
2022/03/18 11:12:45;;;;;;;;;;;;;;;;;;5096792;28;19927;-31
2022/03/18 11:15:11;;;;;;;;;;;;;;;;;;5096344;28;19912;-31
2022/03/18 11:17:38;;;;;;;;;;;;;;;;;;5096374;28;19923;-35
2022/03/18 11:20:04;;;;;;;;;;;;;;;;;;5096139;28;20014;-33
2022/03/18 11:22:33;;;;;;;;;;;;;;;;;;5096003;28;19958;-34
2022/03/18 11:25:00;;;;;;;;;;;;;;;;;;5096013;28;19908;-33
2022/03/18 11:27:26;;;;;;;;;;;;;;;;;;5096635;28;19939;-31
2022/03/18 11:29:53;;;;;;;;;;;;;;;;;;5078294;28;19912;-33
2022/03/18 11:32:20;;;;;;;;;;;;;;;;;;5096133;28;20003;-34
2022/03/18 11:34:46;;;;;;;;;;;;;;;;;;5095851;28;19916;-33
2022/03/18 11:37:13;;;;;;;;;;;;;;;;;;5096145;28;19912;-32
2022/03/18 11:39:39;;;;;;;;;;;;;;;;;;5096120;28;19908;-32
2022/03/18 11:42:05;;;;;;;;;;;;;;;;;;5095764;28;20232;-34
2022/03/18 11:44:31;;;;;;;;;;;;;;;;;;5096297;28;19934;-33
2022/03/18 11:46:57;;;;;;;;;;;;;;;;;;5077973;28;20377;-32
2022/03/18 11:49:23;;;;;;;;;;;;;;;;;;5095783;28;19912;-31
2022/03/18 11:51:49;;;;;;;;;;;;;;;;;;5095691;28;19908;-31
2022/03/18 11:54:16;;;;;;;;;;;;;;;;;;5095860;28;20257;-33
2022/03/18 11:56:42;;;;;;;;;;;;;;;;;;5095684;28;19908;-37
2022/03/18 11:59:08;;;;;;;;;;;;;;;;;;5077800;28;19939;-34
2022/03/18 12:01:34;;;;;;;;;;;;;;;;;;5095688;28;19922;-33
2022/03/18 12:04:00;;;;;;;;;;;;;;;;;;5095404;28;20347;-34
2022/03/18 12:06:26;;;;;;;;;;;;;;;;;;5095847;28;19912;-33
2022/03/18 12:08:52;;;;;;;;;;;;;;;;;;5096106;28;19944;-34
2022/03/18 12:11:18;;;;;;;;;;;;;;;;;;5095429;28;19912;-34
2022/03/18 12:13:44;;;;;;;;;;;;;;;;;;5095311;28;20328;-34
2022/03/18 12:16:10;;;;;;;;;;;;;;;;;;5095315;28;19924;-33
2022/03/18 12:18:36;;;;;;;;;;;;;;;;;;5077592;28;20233;-35
2022/03/18 12:21:02;;;;;;;;;;;;;;;;;;5094712;28;19952;-31
2022/03/18 12:23:28;;;;;;;;;;;;;;;;;;5095185;28;20002;-32
2022/03/18 12:25:54;;;;;;;;;;;;;;;;;;5095405;28;19969;-32
2022/03/18 12:28:20;;;;;;;;;;;;;;;;;;5095252;28;19908;-32
2022/03/18 12:30:46;;;;;;;;;;;;;;;;;;5095418;28;19912;-34
2022/03/18 12:33:12;;;;;;;;;;;;;;;;;;5094993;28;19908;-33
2022/03/18 12:35:38;;;;;;;;;;;;;;;;;;5094815;28;19927;-31
2022/03/18 12:38:04;;;;;;;;;;;;;;;;;;5095237;28;19923;-37
2022/03/18 12:40:30;;;;;;;;;;;;;;;;;;5095236;28;20365;-33
2022/03/18 12:42:56;;;;;;;;;;;;;;;;;;5095103;28;19916;-32
2022/03/18 12:45:22;;;;;;;;;;;;;;;;;;5095371;28;20255;-33
2022/03/18 12:47:50;;;;;;;;;;;;;;;;;;5077244;28;20247;-32
2022/03/18 12:50:16;;;;;;;;;;;;;;;;;;5094906;28;19948;-35
2022/03/18 12:52:42;;;;;;;;;;;;;;;;;;5077033;28;19964;-31
2022/03/18 12:55:08;;;;;;;;;;;;;;;;;;5094864;28;20026;-31
2022/03/18 12:57:34;;;;;;;;;;;;;;;;;;5095351;28;20247;-32
2022/03/18 13:00:00;;;;;;;;;;;;;;;;;;5077044;28;20431;-31
2022/03/18 13:02:26;;;;;;;;;;;;;;;;;;5094882;28;19916;-37
2022/03/18 13:04:52;;;;;;;;;;;;;;;;;;5094616;28;20262;-30
2022/03/18 13:07:18;;;;;;;;;;;;;;;;;;5094806;28;19919;-34
2022/03/18 13:09:44;;;;;;;;;;;;;;;;;;5094824;28;19916;-33
2022/03/18 13:12:10;;;;;;;;;;;;;;;;;;5076996;28;19922;-34
2022/03/18 13:14:38;;;;;;;;;;;;;;;;;;5094725;28;20337;-32
2022/03/18 13:17:04;;;;;;;;;;;;;;;;;;5095206;28;19916;-32
2022/03/18 13:19:30;;;;;;;;;;;;;;;;;;5094925;28;19938;-35
2022/03/18 13:21:56;;;;;;;;;;;;;;;;;;5094908;28;20358;-32
2022/03/18 13:24:22;;;;;;;;;;;;;;;;;;5094684;28;20006;-32
2022/03/18 13:26:48;;;;;;;;;;;;;;;;;;5094613;28;19966;-34
2022/03/18 13:29:14;;;;;;;;;;;;;;;;;;5077047;28;19927;-32
2022/03/18 13:34:25;;;;;;;;;;;;;;;;;;5098519;28;20434;-31
2022/03/18 13:36:51;;;;;;;;;;;;;;;;;;5098372;28;19909;-33
2022/03/18 13:39:16;;;;;;;;;;;;;;;;;;5098247;28;19912;-32
2022/03/18 13:41:43;;;;;;;;;;;;;;;;;;5098116;28;20228;-33
2022/03/18 13:44:09;;;;;;;;;;;;;;;;;;5098116;28;19919;-33
2022/03/18 13:46:35;;;;;;;;;;;;;;;;;;5098292;28;19911;-33
2022/03/18 13:49:03;;;;;;;;;;;;;;;;;;5098221;28;19914;-33
2022/03/18 13:51:30;;;;;;;;;;;;;;;;;;5097889;28;19912;-32
2022/03/18 13:53:56;;;;;;;;;;;;;;;;;;5097858;28;19916;-33
2022/03/18 13:56:22;;;;;;;;;;;;;;;;;;5097922;28;19928;-35
2022/03/18 13:58:48;;;;;;;;;;;;;;;;;;5097624;28;19907;-32
2022/03/18 14:01:14;;;;;;;;;;;;;;;;;;5098240;28;19916;-32
2022/03/18 14:03:43;;;;;;;;;;;;;;;;;;5097482;28;19924;-34
2022/03/18 14:06:09;;;;;;;;;;;;;;;;;;5097779;28;19922;-31
2022/03/18 14:08:46;;;;;;;;;;;;;;;;;;5097504;28;19920;-33
2022/03/18 14:13:56;;;;;;;;;;;;;;;;;;5097621;28;19922;-32
2022/03/18 14:16:22;;;;;;;;;;;;;;;;;;5097474;28;19912;-33
2022/03/18 14:18:48;;;;;;;;;;;;;;;;;;5098242;28;19973;-32
2022/03/18 14:21:15;;;;;;;;;;;;;;;;;;5097587;28;20312;-32
2022/03/18 14:23:41;;;;;;;;;;;;;;;;;;5097530;28;19961;-32
2022/03/18 14:26:08;;;;;;;;;;;;;;;;;;5097714;28;19977;-31
2022/03/18 14:28:34;;;;;;;;;;;;;;;;;;5097393;28;19992;-31
2022/03/18 14:31:00;;;;;;;;;;;;;;;;;;5097693;28;19919;-31
2022/03/18 14:33:26;;;;;;;;;;;;;;;;;;5097222;28;20291;-33
2022/03/18 14:35:52;;;;;;;;;;;;;;;;;;5079417;28;19923;-33
2022/03/18 14:38:18;;;;;;;;;;;;;;;;;;5097560;28;19908;-31
2022/03/18 14:40:44;;;;;;;;;;;;;;;;;;5097251;28;19934;-33
2022/03/18 14:43:10;;;;;;;;;;;;;;;;;;5096400;28;19965;-33
2022/03/18 14:45:36;;;;;;;;;;;;;;;;;;5097687;28;20293;-33
2022/03/18 14:48:02;;;;;;;;;;;;;;;;;;5097008;28;19912;-32
2022/03/18 14:50:28;;;;;;;;;;;;;;;;;;5097195;28;19912;-35
2022/03/18 14:52:56;;;;;;;;;;;;;;;;;;5096873;28;20316;-32
2022/03/18 14:58:07;;;;;;;;;;;;;;;;;;5097101;28;19942;-34
2022/03/18 15:00:33;;;;;;;;;;;;;;;;;;5097062;28;19942;-33
2022/03/18 15:02:59;;;;;;;;;;;;;;;;;;5096495;28;19916;-32
2022/03/18 15:05:25;;;;;;;;;;;;;;;;;;5096591;28;20421;-32
2022/03/18 15:07:51;;;;;;;;;;;;;;;;;;5096553;28;19909;-31
2022/03/18 15:10:17;;;;;;;;;;;;;;;;;;5097114;28;19923;-32
2022/03/18 15:12:43;;;;;;;;;;;;;;;;;;5096724;28;20281;-32
2022/03/18 15:15:13;;;;;;;;;;;;;;;;;;5096790;28;20228;-31
2022/03/18 15:17:39;;;;;;;;;;;;;;;;;;5078492;28;19919;-33
2022/03/18 15:20:05;;;;;;;;;;;;;;;;;;5096688;28;19920;-35
2022/03/18 15:22:31;;;;;;;;;;;;;;;;;;5096469;28;19922;-33
2022/03/18 15:24:59;;;;;;;;;;;;;;;;;;5096132;28;20325;-33
2022/03/18 15:27:25;;;;;;;;;;;;;;;;;;5096987;28;19912;-35
2022/03/18 15:29:52;;;;;;;;;;;;;;;;;;5096917;28;19977;-31
2022/03/18 15:32:18;;;;;;;;;;;;;;;;;;5096120;28;19919;-31
2022/03/18 15:34:45;;;;;;;;;;;;;;;;;;5096561;28;19951;-32
2022/03/18 15:37:12;;;;;;;;;;;;;;;;;;5096099;28;19923;-32
2022/03/18 15:39:38;;;;;;;;;;;;;;;;;;5096108;28;19912;-36
2022/03/18 15:42:04;;;;;;;;;;;;;;;;;;5096196;28;20365;-32
2022/03/18 15:44:30;;;;;;;;;;;;;;;;;;5096438;28;19912;-32
2022/03/18 15:46:57;;;;;;;;;;;;;;;;;;5095900;28;19922;-32
2022/03/18 15:49:24;;;;;;;;;;;;;;;;;;5095848;28;20364;-34
2022/03/18 15:51:51;;;;;;;;;;;;;;;;;;5096092;28;20251;-33
2022/03/18 15:54:17;;;;;;;;;;;;;;;;;;5095778;28;19912;-31
2022/03/18 15:56:44;;;;;;;;;;;;;;;;;;5095924;28;19916;-31
2022/03/18 15:59:11;;;;;;;;;;;;;;;;;;5095952;28;19916;-31
2022/03/18 16:01:37;;;;;;;;;;;;;;;;;;5095565;28;20343;-32
2022/03/18 16:04:03;;;;;;;;;;;;;;;;;;5095358;28;19920;-33
2022/03/18 16:06:29;;;;;;;;;;;;;;;;;;5095469;28;19908;-31
2022/03/18 16:08:58;;;;;;;;;;;;;;;;;;5095618;28;20011;-32
2022/03/18 16:11:25;;;;;;;;;;;;;;;;;;5095454;28;19916;-31
2022/03/18 16:13:51;;;;;;;;;;;;;;;;;;5095470;28;19973;-31
2022/03/18 16:16:20;;;;;;;;;;;;;;;;;;5095337;28;19927;-33
2022/03/18 16:18:46;;;;;;;;;;;;;;;;;;5095400;28;19915;-32
2022/03/18 16:21:13;;;;;;;;;;;;;;;;;;5095381;28;20371;-32
2022/03/18 16:23:39;;;;;;;;;;;;;;;;;;5095122;28;20362;-31
2022/03/18 16:26:04;;;;;;;;;;;;;;;;;;5095171;28;19927;-31
2022/03/18 16:28:30;;;;;;;;;;;;;;;;;;5077408;28;19908;-31
2022/03/18 16:30:56;;;;;;;;;;;;;;;;;;5095920;28;19913;-32
2022/03/18 16:33:22;;;;;;;;;;;;;;;;;;5077382;28;20351;-36
2022/03/18 16:35:48;;;;;;;;;;;;;;;;;;5095007;28;19916;-32
2022/03/18 16:38:14;;;;;;;;;;;;;;;;;;5095778;28;19912;-37
2022/03/18 16:40:42;;;;;;;;;;;;;;;;;;5095092;28;19923;-32
2022/03/18 16:43:08;;;;;;;;;;;;;;;;;;5095073;28;19912;-32
2022/03/18 16:49:23;;;;;;;;;;;;;;;;;;5095213;28;19908;-32
2022/03/18 16:51:08;;;;;;;;;;;;;;;;;;5095223;28;20007;-34
2022/03/18 16:53:34;;;;;;;;;;;;;;;;;;5095005;28;19923;-31
2022/03/18 16:56:00;;;;;;;;;;;;;;;;;;5095601;28;20331;-31
2022/03/18 16:58:26;;;;;;;;;;;;;;;;;;5095099;28;20258;-33
2022/03/18 17:00:53;;;;;;;;;;;;;;;;;;5094981;28;19912;-32
2022/03/18 17:03:19;;;;;;;;;;;;;;;;;;5094668;28;19924;-31
2022/03/18 17:05:46;;;;;;;;;;;;;;;;;;5077891;28;20353;-32
2022/03/18 17:08:18;;;;;;;;;;;;;;;;;;5081146;28;20343;-31
2022/03/18 17:10:44;;;;;;;;;;;;;;;;;;5099589;28;19916;-34
2022/03/18 17:13:10;;;;;;;;;;;;;;;;;;5099160;28;20315;-31
2022/03/18 17:15:37;;;;;;;;;;;;;;;;;;5080831;28;19916;-32